Time;durP1;ratioP1;P1;durP2;ratioP2;P2;SDS_P1;SDS_P2;PMS_P1;PMS_P2;Temp;Humidity;BMP_temperature;BMP_pressure;BME280_temperature;BME280_humidity;BME280_pressure;Samples;Min_cycle;Max_cycle;Signal;HPM_P1;HPM_P2
2021/09/14 00:00:56;;;;;;;;;;;;;;;26.27;36.52;100229.69;4387119;32;33630;-85
2021/09/14 00:03:24;;;;;;;;;;;;;;;26.42;36.17;100231.94;4374081;32;33672;-86
2021/09/14 00:05:51;;;;;;;;;;;;;;;25.55;37.89;100228.00;4374799;32;33211;-86
2021/09/14 00:08:18;;;;;;;;;;;;;;;25.10;38.95;100229.09;4399201;32;34830;-86
2021/09/14 00:10:46;;;;;;;;;;;;;;;24.90;39.24;100236.09;4399689;32;33034;-86
2021/09/14 00:13:13;;;;;;;;;;;;;;;25.08;38.59;100231.03;4386999;32;34464;-86
2021/09/14 00:15:49;;;;;;;;;;;;;;;24.81;39.31;100232.34;4386148;32;34052;-87
2021/09/14 00:18:16;;;;;;;;;;;;;;;25.19;38.41;100222.97;4374807;32;33738;-87
2021/09/14 00:20:43;;;;;;;;;;;;;;;25.04;38.81;100234.94;4399563;32;34367;-86
2021/09/14 00:23:10;;;;;;;;;;;;;;;25.56;37.78;100235.84;4387078;32;34220;-87
2021/09/14 00:25:38;;;;;;;;;;;;;;;25.62;37.44;100234.47;4399417;32;33479;-87
2021/09/14 00:28:05;;;;;;;;;;;;;;;25.67;37.28;100238.44;4399506;32;34385;-85
2021/09/14 00:30:33;;;;;;;;;;;;;;;25.59;37.55;100240.06;4387233;32;33043;-87
2021/09/14 00:33:16;;;;;;;;;;;;;;;25.60;37.58;100237.28;4385024;32;32885;-85
2021/09/14 00:35:45;;;;;;;;;;;;;;;25.07;38.55;100240.84;4386234;32;33705;-87
2021/09/14 00:38:12;;;;;;;;;;;;;;;25.42;37.83;100233.53;4399643;32;34829;-85
2021/09/14 00:40:39;;;;;;;;;;;;;;;24.64;39.49;100234.63;4386847;32;32428;-87
2021/09/14 00:43:06;;;;;;;;;;;;;;;25.33;38.04;100237.81;4386783;32;33307;-87
2021/09/14 00:45:34;;;;;;;;;;;;;;;25.13;37.89;100240.34;4387051;32;34287;-86
2021/09/14 00:48:01;;;;;;;;;;;;;;;24.61;39.05;100245.50;4386816;32;34334;-86
2021/09/14 00:50:28;;;;;;;;;;;;;;;24.90;38.51;100244.09;4400241;32;33951;-86
2021/09/14 00:52:56;;;;;;;;;;;;;;;24.37;39.48;100245.69;4372599;32;33508;-85
2021/09/14 00:55:25;;;;;;;;;;;;;;;24.54;39.44;100246.12;4386384;32;33887;-86
2021/09/14 00:57:52;;;;;;;;;;;;;;;24.76;38.92;100251.41;4386903;32;34580;-86
2021/09/14 01:00:21;;;;;;;;;;;;;;;25.19;38.20;100246.97;4374767;32;33756;-86
2021/09/14 01:02:50;;;;;;;;;;;;;;;25.13;38.52;100250.16;4398578;32;34678;-86
2021/09/14 01:05:17;;;;;;;;;;;;;;;24.98;38.31;100247.81;4386657;32;33235;-86
2021/09/14 01:07:45;;;;;;;;;;;;;;;24.81;38.76;100243.00;4386402;32;34211;-85
2021/09/14 01:10:13;;;;;;;;;;;;;;;25.01;38.48;100238.72;4386786;32;34098;-86
2021/09/14 01:12:40;;;;;;;;;;;;;;;24.43;39.54;100242.50;4374046;32;32834;-86
2021/09/14 01:15:08;;;;;;;;;;;;;;;25.01;38.48;100244.03;4386736;32;33951;-86
2021/09/14 01:17:36;;;;;;;;;;;;;;;24.77;38.75;100241.59;4386245;32;33391;-86
2021/09/14 01:20:04;;;;;;;;;;;;;;;24.16;40.23;100245.59;4399354;32;33966;-86
2021/09/14 01:22:32;;;;;;;;;;;;;;;24.68;39.42;100246.72;4386510;32;34058;-85
2021/09/14 01:24:59;;;;;;;;;;;;;;;24.96;38.93;100243.59;4399429;32;34687;-86
2021/09/14 01:27:26;;;;;;;;;;;;;;;24.89;38.94;100245.06;4399053;32;34581;-85
2021/09/14 01:32:41;;;;;;;;;;;;;;;25.04;38.50;100240.28;4375456;32;34638;-86
2021/09/14 01:35:13;;;;;;;;;;;;;;;24.87;38.88;100237.19;4374126;32;34837;-85
2021/09/14 01:37:43;;;;;;;;;;;;;;;25.18;38.28;100237.28;4375717;32;34216;-86
2021/09/14 01:40:11;;;;;;;;;;;;;;;24.62;39.21;100235.69;4373795;32;33050;-86
2021/09/14 01:42:38;;;;;;;;;;;;;;;24.43;38.98;100239.84;4399142;32;34367;-87
2021/09/14 01:45:07;;;;;;;;;;;;;;;24.63;38.69;100232.91;4399271;32;34768;-86
2021/09/14 01:47:35;;;;;;;;;;;;;;;24.50;38.72;100242.84;4386519;32;33269;-86
2021/09/14 01:50:03;;;;;;;;;;;;;;;24.18;39.20;100244.50;4374329;32;32793;-86
2021/09/14 01:52:32;;;;;;;;;;;;;;;24.19;39.42;100245.34;4386490;32;33044;-86
2021/09/14 01:55:00;;;;;;;;;;;;;;;24.64;38.70;100239.94;4374102;32;33576;-87
2021/09/14 01:57:40;;;;;;;;;;;;;;;24.35;39.68;100237.81;4411586;32;33921;-87
2021/09/14 02:00:21;;;;;;;;;;;;;;;24.73;38.82;100241.00;4385266;32;33215;-86
2021/09/14 02:33:50;;;;;;;;;;;;;;;23.57;41.50;100255.47;4384537;32;34788;-86
2021/09/14 03:00:25;;;;;;;;;;;;;;;23.76;40.13;100272.66;4373493;32;33950;-86
2021/09/14 03:02:52;;;;;;;;;;;;;;;23.66;40.35;100273.38;4410955;32;33937;-86
2021/09/14 03:05:19;;;;;;;;;;;;;;;23.78;39.77;100270.72;4398524;32;33674;-86
2021/09/14 03:07:47;;;;;;;;;;;;;;;23.44;40.59;100268.00;4385875;32;35232;-86
2021/09/14 03:10:14;;;;;;;;;;;;;;;23.07;41.88;100268.13;4373751;32;33801;-86
2021/09/14 03:12:42;;;;;;;;;;;;;;;23.50;41.00;100267.56;4385818;32;33861;-86
2021/09/14 03:15:09;;;;;;;;;;;;;;;23.29;41.36;100262.91;4373231;32;32675;-86
2021/09/14 03:17:37;;;;;;;;;;;;;;;23.51;40.35;100262.09;4386204;32;34248;-85
2021/09/14 03:20:04;;;;;;;;;;;;;;;22.82;41.87;100262.81;4373488;32;33413;-86
2021/09/14 03:22:32;;;;;;;;;;;;;;;23.47;40.22;100265.13;4373676;32;33073;-86
2021/09/14 03:24:59;;;;;;;;;;;;;;;23.23;40.63;100268.69;4361955;32;32656;-86
2021/09/14 03:27:26;;;;;;;;;;;;;;;23.12;40.76;100261.50;4386392;32;33998;-86
2021/09/14 03:29:55;;;;;;;;;;;;;;;22.88;41.25;100264.16;4399526;32;35105;-85
2021/09/14 03:32:22;;;;;;;;;;;;;;;23.13;40.95;100265.00;4400653;32;34205;-86
2021/09/14 03:34:50;;;;;;;;;;;;;;;23.45;40.33;100267.91;4412532;32;32588;-86
2021/09/14 03:37:18;;;;;;;;;;;;;;;23.32;40.66;100265.34;4387641;32;34345;-86
2021/09/14 03:39:45;;;;;;;;;;;;;;;23.20;41.04;100268.06;4374562;32;33351;-86
2021/09/14 03:42:13;;;;;;;;;;;;;;;22.57;42.14;100266.44;4374834;32;33463;-86
2021/09/14 03:44:41;;;;;;;;;;;;;;;22.52;42.35;100263.28;4376688;32;33606;-85
2021/09/14 03:47:10;;;;;;;;;;;;;;;22.31;42.63;100266.50;4399564;32;35131;-86
2021/09/14 03:49:38;;;;;;;;;;;;;;;22.75;41.67;100268.69;4386992;32;32988;-86
2021/09/14 03:52:06;;;;;;;;;;;;;;;23.23;40.48;100273.16;4387138;32;33241;-85
2021/09/14 03:54:33;;;;;;;;;;;;;;;23.12;40.91;100266.81;4387045;32;32345;-85
2021/09/14 03:57:01;;;;;;;;;;;;;;;23.40;40.20;100263.91;4399748;32;34677;-86
2021/09/14 03:59:28;;;;;;;;;;;;;;;23.37;40.49;100269.47;4400295;32;34512;-86
2021/09/14 04:01:59;;;;;;;;;;;;;;;23.44;39.77;100276.84;4387997;32;33275;-86
2021/09/14 04:04:48;;;;;;;;;;;;;;;23.33;40.04;100268.84;4387756;32;33441;-86
2021/09/14 04:07:52;;;;;;;;;;;;;;;23.15;40.54;100276.41;4373151;32;34197;-86
2021/09/14 04:10:09;;;;;;;;;;;;;;;22.87;41.23;100275.78;4369362;32;33717;-87
2021/09/14 04:12:37;;;;;;;;;;;;;;;22.45;42.14;100286.75;4387221;32;33931;-87
2021/09/14 04:15:04;;;;;;;;;;;;;;;23.23;40.90;100279.34;4387132;32;33510;-86
2021/09/14 04:17:32;;;;;;;;;;;;;;;23.33;40.83;100283.00;4387036;32;34084;-87
2021/09/14 04:20:00;;;;;;;;;;;;;;;22.83;42.23;100276.97;4374359;32;33220;-85
2021/09/14 04:22:31;;;;;;;;;;;;;;;23.82;39.79;100285.47;4386496;32;33420;-86
2021/09/14 04:25:02;;;;;;;;;;;;;;;23.35;40.77;100283.72;4375546;32;34898;-87
2021/09/14 04:27:29;;;;;;;;;;;;;;;22.61;42.34;100280.34;4375407;32;33888;-86
2021/09/14 04:29:57;;;;;;;;;;;;;;;22.88;41.83;100285.44;4362251;32;34088;-87
2021/09/14 04:32:25;;;;;;;;;;;;;;;23.06;41.39;100288.53;4387711;32;34057;-86
2021/09/14 04:34:52;;;;;;;;;;;;;;;22.75;42.07;100289.94;4375052;32;33037;-86
2021/09/14 04:37:20;;;;;;;;;;;;;;;23.27;40.74;100294.09;4399696;32;33834;-86
2021/09/14 04:39:47;;;;;;;;;;;;;;;23.54;40.03;100290.28;4374674;32;33829;-86
2021/09/14 04:42:15;;;;;;;;;;;;;;;23.40;40.44;100295.81;4374136;32;33821;-87
2021/09/14 04:44:42;;;;;;;;;;;;;;;22.80;41.71;100294.00;4374969;32;32989;-86
2021/09/14 04:47:10;;;;;;;;;;;;;;;23.48;40.51;100291.59;4374607;32;33763;-87
2021/09/14 04:49:37;;;;;;;;;;;;;;;23.34;40.93;100297.13;4387534;32;33973;-87
2021/09/14 04:52:07;;;;;;;;;;;;;;;22.98;41.72;100297.06;4387397;32;34036;-86
2021/09/14 04:54:35;;;;;;;;;;;;;;;23.64;40.55;100299.25;4399825;32;33466;-87
2021/09/14 04:57:04;;;;;;;;;;;;;;;23.60;40.61;100302.25;4375934;32;35559;-87
2021/09/14 04:59:31;;;;;;;;;;;;;;;22.73;42.48;100302.50;4387579;32;34441;-87
2021/09/14 05:02:00;;;;;;;;;;;;;;;23.16;41.82;100302.00;4362892;32;32929;-86
2021/09/14 05:04:28;;;;;;;;;;;;;;;23.20;41.81;100300.84;4375467;32;32751;-87
2021/09/14 05:06:55;;;;;;;;;;;;;;;23.58;40.97;100306.84;4362869;32;33863;-87
2021/09/14 05:09:23;;;;;;;;;;;;;;;23.59;41.07;100296.09;4387989;32;34720;-87
2021/09/14 05:11:51;;;;;;;;;;;;;;;23.83;40.66;100301.31;4387777;32;33970;-87
2021/09/14 05:14:18;;;;;;;;;;;;;;;23.61;41.29;100307.47;4387899;32;33422;-87
2021/09/14 05:16:48;;;;;;;;;;;;;;;23.26;42.11;100310.16;4399226;32;35014;-87
2021/09/14 05:19:19;;;;;;;;;;;;;;;23.89;40.82;100309.78;4387920;32;34020;-88
2021/09/14 05:21:47;;;;;;;;;;;;;;;24.13;40.42;100309.72;4400220;32;34783;-87
2021/09/14 05:24:14;;;;;;;;;;;;;;;23.52;41.78;100314.34;4377655;32;33522;-86
2021/09/14 05:26:41;;;;;;;;;;;;;;;23.81;41.22;100313.91;4401215;32;32914;-86
2021/09/14 05:29:09;;;;;;;;;;;;;;;24.54;39.69;100316.22;4387016;32;34079;-87
2021/09/14 05:31:36;;;;;;;;;;;;;;;24.94;38.76;100309.47;4400130;32;34378;-88
2021/09/14 05:34:03;;;;;;;;;;;;;;;25.08;38.57;100311.00;4375657;32;33426;-87
2021/09/14 05:36:32;;;;;;;;;;;;;;;24.83;39.15;100308.53;4400167;32;34975;-87
2021/09/14 05:39:00;;;;;;;;;;;;;;;24.83;39.25;100318.34;4401462;32;34513;-87
2021/09/14 05:41:28;;;;;;;;;;;;;;;24.33;40.63;100313.44;4388196;32;34504;-87
2021/09/14 05:43:56;;;;;;;;;;;;;;;25.20;38.89;100317.16;4375571;32;34246;-87
2021/09/14 05:46:25;;;;;;;;;;;;;;;25.58;38.37;100316.62;4375300;32;33112;-88
2021/09/14 05:48:54;;;;;;;;;;;;;;;25.78;38.15;100314.03;4345557;32;955641;-86
2021/09/14 05:51:22;;;;;;;;;;;;;;;26.20;37.55;100321.16;4375019;32;33434;-87
2021/09/14 05:53:49;;;;;;;;;;;;;;;25.69;38.46;100313.03;4374881;32;32283;-86
2021/09/14 05:56:18;;;;;;;;;;;;;;;25.84;38.56;100324.19;4399234;32;33008;-87
2021/09/14 05:58:46;;;;;;;;;;;;;;;26.44;37.34;100320.81;4374529;32;34238;-87
2021/09/14 06:01:13;;;;;;;;;;;;;;;26.09;38.07;100317.59;4400007;32;33368;-86
2021/09/14 06:03:47;;;;;;;;;;;;;;;25.52;39.46;100314.47;4386543;32;33481;-88
2021/09/14 06:06:15;;;;;;;;;;;;;;;25.43;39.80;100321.41;4386769;32;34806;-88
2021/09/14 06:08:42;;;;;;;;;;;;;;;25.21;40.74;100324.16;4387690;32;33991;-87
2021/09/14 06:11:10;;;;;;;;;;;;;;;25.39;40.82;100329.81;4374424;32;33589;-86
2021/09/14 06:13:40;;;;;;;;;;;;;;;25.82;39.85;100339.47;4386509;32;33746;-88
2021/09/14 06:16:09;;;;;;;;;;;;;;;26.32;38.88;100323.56;4384019;32;33370;-88
2021/09/14 06:18:37;;;;;;;;;;;;;;;26.43;38.77;100332.47;4361700;32;33924;-88
2021/09/14 06:21:04;;;;;;;;;;;;;;;26.54;38.56;100339.53;4349252;32;34040;-87
2021/09/14 06:23:33;;;;;;;;;;;;;;;26.53;38.72;100332.53;4374749;32;32627;-89
2021/09/14 06:26:03;;;;;;;;;;;;;;;27.14;37.65;100334.19;4374542;32;33651;-90
2021/09/14 06:28:30;;;;;;;;;;;;;;;27.39;37.25;100331.94;4386946;32;34237;-87
2021/09/14 06:30:58;;;;;;;;;;;;;;;27.17;37.91;100331.22;4386731;32;34374;-87
2021/09/14 06:33:27;;;;;;;;;;;;;;;27.60;37.15;100324.59;4375646;32;33561;-87
2021/09/14 06:35:58;;;;;;;;;;;;;;;28.09;36.21;100324.47;4382432;32;34875;-87
2021/09/14 06:38:27;;;;;;;;;;;;;;;28.05;36.20;100323.06;4387069;32;34392;-87
2021/09/14 06:40:54;;;;;;;;;;;;;;;28.49;35.43;100317.94;4399681;32;33158;-87
2021/09/14 06:43:22;;;;;;;;;;;;;;;28.72;35.07;100332.75;4386445;32;34101;-88
2021/09/14 06:45:55;;;;;;;;;;;;;;;29.23;34.20;100320.53;4373986;32;34431;-88
2021/09/14 06:48:24;;;;;;;;;;;;;;;28.76;34.93;100326.09;4386555;32;34940;-87
2021/09/14 06:50:51;;;;;;;;;;;;;;;28.90;34.81;100325.59;4386709;32;34222;-86
2021/09/14 06:53:19;;;;;;;;;;;;;;;29.22;34.31;100318.84;4386827;32;32229;-86
2021/09/14 06:55:47;;;;;;;;;;;;;;;28.81;35.41;100322.00;4374271;32;33180;-86
2021/09/14 06:58:14;;;;;;;;;;;;;;;28.88;35.72;100324.91;4386529;32;34501;-86
2021/09/14 07:00:41;;;;;;;;;;;;;;;29.31;35.07;100314.41;4387224;32;34382;-86
2021/09/14 07:03:09;;;;;;;;;;;;;;;29.34;35.01;100322.16;4374399;32;33186;-85
2021/09/14 07:05:36;;;;;;;;;;;;;;;29.34;35.20;100321.31;4373266;32;33750;-86
2021/09/14 07:08:04;;;;;;;;;;;;;;;29.06;35.57;100316.84;4374395;32;32720;-87
2021/09/14 07:10:31;;;;;;;;;;;;;;;29.34;34.94;100318.63;4374453;32;33852;-85
2021/09/14 07:12:58;;;;;;;;;;;;;;;29.58;34.54;100320.66;4374240;32;32500;-86
2021/09/14 07:15:26;;;;;;;;;;;;;;;29.92;33.71;100323.41;4374384;32;32734;-85
2021/09/14 07:17:53;;;;;;;;;;;;;;;29.95;33.55;100327.63;4375959;32;34241;-87
2021/09/14 07:20:20;;;;;;;;;;;;;;;29.85;33.60;100327.72;4386955;32;33892;-86
2021/09/14 07:22:47;;;;;;;;;;;;;;;29.79;33.48;100331.84;4376031;32;33362;-86
2021/09/14 07:25:15;;;;;;;;;;;;;;;29.99;33.03;100332.50;4375703;32;34990;-85
2021/09/14 07:27:42;;;;;;;;;;;;;;;29.53;33.75;100339.06;4399761;32;33055;-87
2021/09/14 07:30:09;;;;;;;;;;;;;;;29.97;33.00;100336.38;4375735;32;34922;-87
2021/09/14 07:32:37;;;;;;;;;;;;;;;30.31;32.30;100339.06;4386878;32;33238;-88
2021/09/14 07:35:04;;;;;;;;;;;;;;;30.84;31.64;100338.87;4386939;32;34192;-87
2021/09/14 07:37:32;;;;;;;;;;;;;;;30.68;31.78;100338.87;4386984;32;34569;-88
2021/09/14 07:39:59;;;;;;;;;;;;;;;30.04;32.99;100342.78;4399192;32;33896;-86
2021/09/14 07:42:26;;;;;;;;;;;;;;;30.43;32.01;100344.12;4374208;32;32221;-88
2021/09/14 07:44:54;;;;;;;;;;;;;;;30.81;31.53;100340.06;4386519;32;34242;-88
2021/09/14 07:47:25;;;;;;;;;;;;;;;30.95;31.36;100338.59;4399174;32;34363;-87
2021/09/14 07:49:52;;;;;;;;;;;;;;;30.72;31.56;100341.03;4374205;32;34734;-87
2021/09/14 07:52:19;;;;;;;;;;;;;;;31.20;30.93;100335.09;4374101;32;33561;-87
2021/09/14 07:54:47;;;;;;;;;;;;;;;30.92;31.26;100341.59;4374062;32;33940;-88
2021/09/14 07:57:14;;;;;;;;;;;;;;;30.92;31.36;100344.28;4386428;32;34719;-87
2021/09/14 07:59:41;;;;;;;;;;;;;;;31.15;30.71;100349.03;4385568;32;34813;-89
2021/09/14 08:02:09;;;;;;;;;;;;;;;32.07;29.36;100343.41;4373282;32;33209;-88
2021/09/14 08:04:38;;;;;;;;;;;;;;;32.22;29.09;100342.72;4386078;32;33890;-88
2021/09/14 08:07:05;;;;;;;;;;;;;;;32.23;28.89;100342.53;4374662;32;34383;-90
2021/09/14 08:09:33;;;;;;;;;;;;;;;31.55;29.95;100342.00;4386216;32;33759;-89
2021/09/14 08:12:00;;;;;;;;;;;;;;;31.22;30.71;100342.00;4361376;32;33362;-88
2021/09/14 08:14:30;;;;;;;;;;;;;;;32.13;29.27;100336.47;4386032;32;33115;-89
2021/09/14 08:16:57;;;;;;;;;;;;;;;30.84;31.47;100343.44;4375796;32;33238;-86
2021/09/14 08:19:24;;;;;;;;;;;;;;;32.02;29.47;100328.75;4376149;32;33877;-87
2021/09/14 08:21:51;;;;;;;;;;;;;;;32.33;28.98;100328.84;4377765;32;33261;-88
2021/09/14 08:24:19;;;;;;;;;;;;;;;32.75;28.07;100329.50;4388566;32;34739;-87
2021/09/14 08:26:47;;;;;;;;;;;;;;;32.37;28.59;100334.72;4387988;32;34271;-87
2021/09/14 08:29:14;;;;;;;;;;;;;;;32.97;27.71;100330.53;4387826;32;35201;-88
2021/09/14 08:31:41;;;;;;;;;;;;;;;32.58;28.40;100337.66;4375663;32;32694;-88
2021/09/14 08:34:09;;;;;;;;;;;;;;;32.76;28.06;100334.72;4388355;32;34509;-87
2021/09/14 08:36:36;;;;;;;;;;;;;;;32.70;27.82;100342.66;4387865;32;34648;-89
2021/09/14 08:39:03;;;;;;;;;;;;;;;32.95;27.31;100328.00;4374817;32;34362;-88
2021/09/14 08:41:31;;;;;;;;;;;;;;;33.00;27.29;100330.19;4387887;32;33505;-87
2021/09/14 08:43:58;;;;;;;;;;;;;;;33.22;27.08;100331.16;4388082;32;34230;-87
2021/09/14 08:46:25;;;;;;;;;;;;;;;33.28;26.82;100330.47;4388028;32;34346;-88
2021/09/14 08:48:56;;;;;;;;;;;;;;;33.60;26.47;100336.59;4375049;32;33193;-87
2021/09/14 08:51:23;;;;;;;;;;;;;;;34.06;25.84;100330.19;4366002;32;34122;-88
2021/09/14 08:53:51;;;;;;;;;;;;;;;33.47;26.58;100326.41;4376871;32;34942;-88
2021/09/14 08:56:26;;;;;;;;;;;;;;;33.96;26.00;100326.97;4363629;32;35046;-89
2021/09/14 08:59:03;;;;;;;;;;;;;;;33.73;26.34;100327.00;4386416;32;34877;-87
2021/09/14 09:01:32;;;;;;;;;;;;;;;32.86;27.81;100329.09;4387579;32;33302;-88
2021/09/14 09:04:01;;;;;;;;;;;;;;;31.69;29.38;100327.00;4375498;32;33367;-89
2021/09/14 09:06:31;;;;;;;;;;;;;;;32.29;28.75;100330.22;4387597;32;33957;-88
2021/09/14 09:09:14;;;;;;;;;;;;;;;32.30;28.60;100330.03;4376582;32;34634;-88
2021/09/14 09:11:51;;;;;;;;;;;;;;;32.35;28.76;100331.34;4375219;32;32874;-87
2021/09/14 09:14:18;;;;;;;;;;;;;;;32.10;28.98;100331.44;4376495;32;35056;-88
2021/09/14 09:16:45;;;;;;;;;;;;;;;32.04;29.05;100329.44;4363144;32;33840;-88
2021/09/14 09:19:12;;;;;;;;;;;;;;;31.57;29.86;100333.72;4374703;32;34118;-89
2021/09/14 09:21:40;;;;;;;;;;;;;;;31.77;29.62;100331.53;4375166;32;32991;-88
2021/09/14 09:24:09;;;;;;;;;;;;;;;32.19;28.86;100326.88;4387987;32;35060;-88
2021/09/14 09:26:41;;;;;;;;;;;;;;;32.03;29.08;100325.91;4376314;32;34487;-88
2021/09/14 09:29:11;;;;;;;;;;;;;;;31.91;29.08;100325.44;4387412;32;34519;-87
2021/09/14 09:31:43;;;;;;;;;;;;;;;32.45;28.29;100326.59;4388125;32;33356;-87
2021/09/14 09:34:12;;;;;;;;;;;;;;;32.06;29.07;100325.56;4376267;32;33428;-85
2021/09/14 09:36:41;;;;;;;;;;;;;;;32.12;29.01;100324.87;4377022;32;34330;-86
2021/09/14 09:39:09;;;;;;;;;;;;;;;32.24;28.77;100316.41;4402469;32;33688;-88
2021/09/14 09:41:40;;;;;;;;;;;;;;;31.86;29.55;100326.94;4387591;32;33510;-88
2021/09/14 09:44:16;;;;;;;;;;;;;;;32.46;28.34;100323.72;4374148;32;33729;-88
2021/09/14 09:46:52;;;;;;;;;;;;;;;32.82;27.64;100321.53;4375197;32;35057;-87
2021/09/14 09:49:19;;;;;;;;;;;;;;;32.71;27.61;100326.31;4399778;32;33522;-88
2021/09/14 09:51:46;;;;;;;;;;;;;;;33.09;27.19;100317.44;4375428;32;33515;-87
2021/09/14 09:54:14;;;;;;;;;;;;;;;33.46;26.78;100326.59;4400452;32;34223;-87
2021/09/14 09:56:41;;;;;;;;;;;;;;;32.94;27.27;100328.19;4374792;32;33431;-88
2021/09/14 09:59:10;;;;;;;;;;;;;;;32.02;28.60;100334.16;4387409;32;34605;-87
2021/09/14 10:01:38;;;;;;;;;;;;;;;33.09;27.06;100328.25;4374125;32;32873;-87
2021/09/14 10:04:07;;;;;;;;;;;;;;;33.28;26.67;100321.53;4387808;32;34148;-85
2021/09/14 10:06:38;;;;;;;;;;;;;;;33.44;26.39;100321.38;4375671;32;33543;-88
2021/09/14 10:09:06;;;;;;;;;;;;;;;33.78;25.97;100332.69;4374824;32;35062;-88
2021/09/14 10:11:36;;;;;;;;;;;;;;;34.18;25.37;100321.63;4386805;32;32116;-88
2021/09/14 10:14:09;;;;;;;;;;;;;;;34.16;25.23;100310.16;4388939;32;33626;-88
2021/09/14 10:16:48;;;;;;;;;;;;;;;34.11;25.38;100313.44;4399898;32;33712;-87
2021/09/14 10:19:26;;;;;;;;;;;;;;;35.05;24.03;100312.66;4387174;32;34171;-88
2021/09/14 10:22:11;;;;;;;;;;;;;;;35.41;23.45;100313.59;4397982;32;33428;-88
2021/09/14 10:24:48;;;;;;;;;;;;;;;35.30;23.36;100306.81;4399645;32;33998;-89
2021/09/14 10:27:16;;;;;;;;;;;;;;;35.71;22.92;100300.66;4374552;32;33250;-88
2021/09/14 10:29:54;;;;;;;;;;;;;;;35.66;22.84;100295.03;4373981;32;32967;-87
2021/09/14 10:32:22;;;;;;;;;;;;;;;35.14;23.53;100299.78;4374263;32;33469;-88
2021/09/14 10:34:53;;;;;;;;;;;;;;;35.56;22.88;100298.06;4377155;32;34482;-88
2021/09/14 10:37:20;;;;;;;;;;;;;;;35.46;23.12;100292.16;4375038;32;35144;-89
2021/09/14 10:39:48;;;;;;;;;;;;;;;36.14;22.28;100301.53;4373835;32;34093;-88
2021/09/14 10:42:19;;;;;;;;;;;;;;;35.92;22.43;100297.06;4362028;32;32456;-88
2021/09/14 10:44:54;;;;;;;;;;;;;;;36.21;21.98;100297.81;4400005;32;33499;-88
2021/09/14 10:47:22;;;;;;;;;;;;;;;35.75;22.30;100295.69;4387277;32;34450;-87
2021/09/14 10:49:58;;;;;;;;;;;;;;;36.00;22.04;100285.22;4387954;32;33236;-87
2021/09/14 10:52:31;;;;;;;;;;;;;;;36.50;21.41;100290.44;4375049;32;33295;-88
2021/09/14 10:55:03;;;;;;;;;;;;;;;36.62;21.07;100290.66;4389593;32;33746;-88
2021/09/14 10:57:32;;;;;;;;;;;;;;;36.90;20.81;100285.09;4377178;32;34472;-88
2021/09/14 10:59:59;;;;;;;;;;;;;;;36.90;20.76;100279.66;4387105;32;33322;-88
2021/09/14 11:02:26;;;;;;;;;;;;;;;36.51;21.08;100281.25;4386483;32;32986;-88
2021/09/14 11:04:57;;;;;;;;;;;;;;;36.08;21.53;100279.59;4387017;32;33863;-87
2021/09/14 11:07:25;;;;;;;;;;;;;;;36.27;21.36;100283.44;4375815;32;34389;-88
2021/09/14 11:09:53;;;;;;;;;;;;;;;36.96;20.64;100275.25;4387070;32;34258;-88
2021/09/14 11:12:21;;;;;;;;;;;;;;;37.21;20.44;100271.94;4374461;32;32363;-87
2021/09/14 11:14:49;;;;;;;;;;;;;;;36.43;21.20;100278.69;4373730;32;33331;-88
2021/09/14 11:17:23;;;;;;;;;;;;;;;36.57;20.96;100268.72;4361998;32;33657;-89
2021/09/14 11:19:52;;;;;;;;;;;;;;;37.19;20.49;100265.84;4373917;32;33705;-87
2021/09/14 11:22:29;;;;;;;;;;;;;;;36.91;20.91;100264.19;4386300;32;32883;-88
2021/09/14 11:24:57;;;;;;;;;;;;;;;37.04;20.81;100268.78;4375817;32;34851;-88
2021/09/14 11:27:24;;;;;;;;;;;;;;;36.55;21.77;100271.66;4386853;32;33014;-87
2021/09/14 11:29:54;;;;;;;;;;;;;;;36.33;22.18;100276.41;4386669;32;33980;-88
2021/09/14 11:32:22;;;;;;;;;;;;;;;36.21;22.27;100276.12;4374010;32;32538;-88
2021/09/14 11:34:52;;;;;;;;;;;;;;;36.42;21.90;100268.91;4386206;32;34309;-87
2021/09/14 11:37:27;;;;;;;;;;;;;;;36.23;22.15;100260.50;4386196;32;34101;-87
2021/09/14 11:39:56;;;;;;;;;;;;;;;35.66;23.02;100264.34;4374120;32;33310;-87
2021/09/14 11:42:23;;;;;;;;;;;;;;;35.35;23.26;100262.94;4374188;32;33404;-88
2021/09/14 11:45:20;;;;;;;;;;;;;;;35.68;22.83;100262.31;4373774;32;33166;-88
2021/09/14 11:47:47;;;;;;;;;;;;;;;35.85;22.71;100258.25;4371674;32;34324;-90
2021/09/14 11:50:26;;;;;;;;;;;;;;;34.92;23.86;100255.69;4397650;32;34408;-86
2021/09/14 11:53:00;;;;;;;;;;;;;;;36.00;22.56;100252.66;4364501;32;35523;-87
2021/09/14 11:55:28;;;;;;;;;;;;;;;35.56;22.68;100257.44;4387685;32;34286;-88
2021/09/14 11:57:56;;;;;;;;;;;;;;;35.99;22.11;100244.75;4400281;32;34821;-88
2021/09/14 12:00:35;;;;;;;;;;;;;;;36.04;21.98;100239.56;4376947;32;34244;-88
2021/09/14 12:03:06;;;;;;;;;;;;;;;35.76;22.32;100243.16;4387448;32;33571;-88
2021/09/14 12:05:34;;;;;;;;;;;;;;;35.61;22.39;100241.41;4363590;32;34175;-87
2021/09/14 12:08:09;;;;;;;;;;;;;;;35.13;22.23;100241.28;4395678;32;33160;-88
2021/09/14 12:10:43;;;;;;;;;;;;;;;35.34;21.83;100245.00;4375611;32;33369;-87
2021/09/14 12:13:15;;;;;;;;;;;;;;;36.11;21.17;100240.41;4388570;32;33478;-88
2021/09/14 12:15:43;;;;;;;;;;;;;;;36.06;21.14;100232.03;4372000;32;34128;-87
2021/09/14 12:18:14;;;;;;;;;;;;;;;35.12;22.22;100243.13;4388850;32;34293;-87
2021/09/14 12:20:44;;;;;;;;;;;;;;;36.04;21.28;100234.13;4376310;32;34696;-89
2021/09/14 12:23:12;;;;;;;;;;;;;;;35.78;21.84;100233.78;4390094;32;33298;-88
2021/09/14 12:25:40;;;;;;;;;;;;;;;35.85;21.36;100225.72;4390880;32;34906;-88
2021/09/14 12:28:07;;;;;;;;;;;;;;;36.80;20.40;100232.22;4377897;32;33919;-88
2021/09/14 12:30:35;;;;;;;;;;;;;;;37.35;19.82;100223.87;4397669;32;33415;-88
2021/09/14 12:33:02;;;;;;;;;;;;;;;36.26;20.95;100227.53;4394611;32;31917;-87
2021/09/14 12:35:29;;;;;;;;;;;;;;;37.46;19.70;100225.09;4393321;32;33168;-88
2021/09/14 12:38:08;;;;;;;;;;;;;;;36.77;20.32;100228.03;4393257;32;33345;-87
2021/09/14 12:40:35;;;;;;;;;;;;;;;37.15;19.79;100216.56;4377858;32;35476;-88
2021/09/14 12:43:02;;;;;;;;;;;;;;;37.24;19.71;100223.47;4389039;32;33947;-88
2021/09/14 12:45:30;;;;;;;;;;;;;;;35.61;21.57;100221.62;4375990;32;33990;-89
2021/09/14 12:47:58;;;;;;;;;;;;;;;36.59;20.39;100215.94;4388844;32;34877;-88
2021/09/14 12:50:25;;;;;;;;;;;;;;;35.65;21.52;100217.47;4376915;32;32701;-88
2021/09/14 12:52:53;;;;;;;;;;;;;;;36.69;20.41;100207.38;4398794;32;33789;-89
2021/09/14 12:55:20;;;;;;;;;;;;;;;37.24;19.68;100206.31;4388877;32;34476;-89
2021/09/14 12:57:47;;;;;;;;;;;;;;;36.89;19.91;100199.25;4400021;32;35074;-90
2021/09/14 13:00:15;;;;;;;;;;;;;;;37.25;19.52;100197.94;4388272;32;33441;-88
2021/09/14 13:02:43;;;;;;;;;;;;;;;37.46;19.27;100198.78;4387397;32;32642;-88
2021/09/14 13:05:10;;;;;;;;;;;;;;;37.49;19.24;100192.06;4401207;32;32976;-88
2021/09/14 13:07:38;;;;;;;;;;;;;;;37.80;18.85;100195.94;4387906;32;34842;-88
2021/09/14 13:10:25;;;;;;;;;;;;;;;38.17;18.44;100199.72;4386425;32;33144;-88
2021/09/14 13:18:33;;;;;;;;;;;;;;;38.54;18.13;100199.09;4416128;32;33175;-89
2021/09/14 13:21:01;;;;;;;;;;;;;;;38.22;18.26;100191.72;4383757;32;33675;-89
2021/09/14 13:23:28;;;;;;;;;;;;;;;38.41;18.24;100195.44;4375709;32;33301;-88
2021/09/14 13:25:56;;;;;;;;;;;;;;;38.46;18.18;100197.47;4376543;32;33469;-88
2021/09/14 13:28:23;;;;;;;;;;;;;;;38.52;17.87;100187.59;4388897;32;34331;-88
2021/09/14 13:30:50;;;;;;;;;;;;;;;39.05;17.40;100183.59;4375186;32;33254;-88
2021/09/14 13:33:18;;;;;;;;;;;;;;;39.06;17.42;100187.97;4377187;32;33310;-89
2021/09/14 13:35:45;;;;;;;;;;;;;;;37.79;18.70;100181.53;4363455;32;33199;-87
2021/09/14 13:38:13;;;;;;;;;;;;;;;37.73;19.59;100179.63;4363233;32;34556;-88
2021/09/14 13:40:43;;;;;;;;;;;;;;;37.32;20.23;100173.50;4363261;32;33690;-88
2021/09/14 13:43:11;;;;;;;;;;;;;;;37.22;20.50;100173.09;4361562;32;33356;-88
2021/09/14 13:48:24;;;;;;;;;;;;;;;37.88;19.85;100180.22;4383432;32;33921;-86
2021/09/14 13:50:53;;;;;;;;;;;;;;;38.14;19.25;100175.69;4397281;32;34148;-88